Harrisville, MI

10:26 PM EST on February 09, 2016 (GMT -0500)
Oscoda-Wurtsmith | | Change Station
CLOSE
Current Station
Airport
Location: Oscoda,
Elevation: 633 ft
Nearby Weather Stations

Elev 633 ft 44.45 °N, 83.39 °W | Updated 12 minutes ago

Overcast
Overcast
20 °F
Feels Like 8 °F
N
13
Wind Variable Wind from NW

Today
High -- | Low -- °F
--% Chance of Precip.
Yesterday
High -- | Low -- °F
Precip. -- in
Pressure 29.65 in
Visibility 10.0 miles
Clouds Scattered Clouds 3200 ft
Mostly Cloudy 7000 ft
Overcast 11000 ft
Windchill 8 °F
Dew Point 15 °F
Humidity 80%
Rainfall 0.00 in
Snow Depth Not available.
7:42 AM 5:52 PM
Waxing Crescent, 3% visible
METAR KOSC 100314Z AUTO 31011KT 10SM SCT032 BKN070 OVC110 M06/M09 A2965 RMK AO2 T10651094
Pressure 29.65 in
Visibility 10.0 miles
Clouds Scattered Clouds 3200 ft
Mostly Cloudy 7000 ft
Overcast 11000 ft
Windchill 8 °F
Dew Point 15 °F
Humidity 80%
Rainfall 0.00 in
Snow Depth Not available.
7:42 AM 5:52 PM
Waxing Crescent, 3% visible
METAR KOSC 100314Z AUTO 31011KT 10SM SCT032 BKN070 OVC110 M06/M09 A2965 RMK AO2 T10651094

10-Day Weather Forecast

Almanac

Astronomy

Feb. 09, 2016 Rise Set
Actual Time
Civil Twilight
Nautical Twilight
Astronomical Twilight
Moon
Length of Visible Light
Length of Day
Tomorrow will be .
, % of the Moon is Illuminated

Today's Extremes

State Highs State Lows

Community

WunderPhotos

Upload Photos

1,891,792 photos uploaded!

WunderBlog® & News

Nearby

Air Quality

  Air Quality AQ Index Pollutant
Not available.

Snow Depth

Station Depth Elevation

Earthquake Activity

City Distance Mag. Time & Date
Minimum magnitude displayed is 2.5.

Coastal Water Temperatures

Place Temperature

Stations

Nearby Weather Stations

Station Location Temp. Windchill Dew Point Humidity Wind Precip. Elev Updated Type
                   

Watches & Warnings

There are currently no watches in effect.